createdAt,value
2018-04-16T00:00:52.733Z,10.92
2018-04-16T00:03:20.235Z,10.94
2018-04-16T00:05:48.547Z,10.97
2018-04-16T00:08:16.102Z,10.98
2018-04-16T00:10:44.724Z,11.00
2018-04-16T00:13:13.030Z,11.03
2018-04-16T00:15:41.179Z,11.05
2018-04-16T00:18:08.846Z,11.06
2018-04-16T00:20:36.628Z,11.07
2018-04-16T00:23:04.607Z,11.07
2018-04-16T00:25:33.025Z,11.06
2018-04-16T00:28:00.573Z,11.06
2018-04-16T00:30:28.173Z,11.07
2018-04-16T00:33:01.279Z,11.03
2018-04-16T00:35:34.390Z,10.99
2018-04-16T00:38:08.370Z,10.95
2018-04-16T00:40:42.612Z,10.92
2018-04-16T00:43:15.495Z,10.92
2018-04-16T00:46:03.174Z,10.87
2018-04-16T00:48:37.203Z,10.83
2018-04-16T00:51:10.382Z,10.82
2018-04-16T00:53:56.274Z,10.79
2018-04-16T00:56:38.751Z,10.79
2018-04-16T00:59:11.995Z,10.80
2018-04-16T01:01:45.031Z,10.80
2018-04-16T01:04:18.273Z,10.78
2018-04-16T01:06:51.409Z,10.79
2018-04-16T01:09:24.668Z,10.79
2018-04-16T01:11:58.226Z,10.81
2018-04-16T01:14:31.859Z,10.78
2018-04-16T01:17:04.995Z,10.78
2018-04-16T01:19:38.120Z,10.82
2018-04-16T01:22:11.863Z,10.84
2018-04-16T01:24:44.985Z,10.85
2018-04-16T01:27:18.121Z,10.83
2018-04-16T01:29:51.165Z,10.83
2018-04-16T01:32:24.516Z,10.83
2018-04-16T01:34:57.700Z,10.82
2018-04-16T01:37:30.834Z,10.80
2018-04-16T01:40:04.615Z,10.79
2018-04-16T01:42:37.698Z,10.80
2018-04-16T01:45:11.642Z,10.82
2018-04-16T01:47:45.966Z,10.81
2018-04-16T01:50:28.415Z,10.77
2018-04-16T01:53:01.765Z,10.78
2018-04-16T01:55:35.680Z,10.78
2018-04-16T01:58:08.810Z,10.77
2018-04-16T02:00:41.959Z,10.80
2018-04-16T02:03:15.042Z,10.82
2018-04-16T02:05:48.182Z,10.84
2018-04-16T02:08:21.322Z,10.83
2018-04-16T02:10:54.882Z,10.79
2018-04-16T02:13:28.852Z,10.79
2018-04-16T02:16:02.709Z,10.77
2018-04-16T02:18:35.733Z,10.77
2018-04-16T02:21:09.790Z,10.77
2018-04-16T02:23:42.846Z,10.75
2018-04-16T02:26:16.630Z,10.73
2018-04-16T02:28:49.946Z,10.74
2018-04-16T02:31:22.935Z,10.77
2018-04-16T02:33:56.817Z,10.81
2018-04-16T02:36:29.882Z,10.87
2018-04-16T02:39:04.071Z,10.89
2018-04-16T02:41:37.475Z,10.92
2018-04-16T02:44:11.254Z,10.94
2018-04-16T02:46:44.403Z,10.95
2018-04-16T02:49:18.313Z,10.95
2018-04-16T02:51:51.502Z,10.94
2018-04-16T02:54:26.331Z,10.93
2018-04-16T02:56:59.395Z,10.94
2018-04-16T02:59:33.142Z,10.96
2018-04-16T03:02:06.393Z,10.97
2018-04-16T03:04:39.694Z,11.00
2018-04-16T03:07:12.790Z,10.98
2018-04-16T03:09:45.922Z,10.97
2018-04-16T03:12:19.434Z,10.92
2018-04-16T03:14:54.331Z,10.89
2018-04-16T03:17:28.067Z,10.86
2018-04-16T03:20:01.103Z,10.81
2018-04-16T03:22:34.319Z,10.77
2018-04-16T03:25:07.561Z,10.74
2018-04-16T03:27:40.764Z,10.73
2018-04-16T03:30:14.868Z,10.70
2018-04-16T03:32:48.840Z,10.70
2018-04-16T03:35:21.919Z,10.73
2018-04-16T03:37:55.205Z,10.75
2018-04-16T03:40:28.923Z,10.76
2018-04-16T03:43:02.022Z,10.76
2018-04-16T03:45:36.001Z,10.72
2018-04-16T03:48:09.961Z,10.70
2018-04-16T03:50:43.217Z,10.65
2018-04-16T03:53:16.366Z,10.61
2018-04-16T03:56:03.399Z,10.58
2018-04-16T03:58:31.666Z,10.58
2018-04-16T04:00:59.207Z,10.58
2018-04-16T04:03:26.773Z,10.61
2018-04-16T04:05:54.342Z,10.62
2018-04-16T04:08:21.879Z,10.60
2018-04-16T04:10:50.120Z,10.61
2018-04-16T04:13:18.484Z,10.63
2018-04-16T04:15:46.678Z,10.62
2018-04-16T04:18:14.207Z,10.67
2018-04-16T04:20:41.747Z,10.69
2018-04-16T04:23:21.010Z,10.71
2018-04-16T04:26:02.099Z,10.75
2018-04-16T04:31:36.067Z,10.72
2018-04-16T04:34:03.606Z,10.71
2018-04-16T04:36:31.142Z,10.71
2018-04-16T04:38:59.126Z,10.74
2018-04-16T04:41:26.651Z,10.77
2018-04-16T04:43:54.799Z,10.80
2018-04-16T04:46:22.333Z,10.82
2018-04-16T04:48:50.379Z,10.85
2018-04-16T04:51:17.937Z,10.89
2018-04-16T04:53:46.314Z,10.93
2018-04-16T04:56:13.857Z,10.94
2018-04-16T04:58:41.904Z,10.94
2018-04-16T05:01:09.463Z,10.94
2018-04-16T05:03:37.777Z,10.95
2018-04-16T05:06:05.471Z,11.02
2018-04-16T05:08:33.013Z,11.12
2018-04-16T05:11:01.517Z,11.25
2018-04-16T05:13:29.811Z,11.40
2018-04-16T05:15:57.833Z,11.52
2018-04-16T05:18:25.384Z,11.57
2018-04-16T05:20:52.951Z,11.62
2018-04-16T05:23:20.520Z,11.68
2018-04-16T05:25:48.066Z,11.76
2018-04-16T05:28:15.674Z,11.87
2018-04-16T05:30:43.361Z,11.99
2018-04-16T05:33:11.692Z,12.00
2018-04-16T05:35:39.753Z,12.00
2018-04-16T05:38:08.225Z,11.99
2018-04-16T05:40:35.778Z,12.00
2018-04-16T05:43:03.343Z,11.97
2018-04-16T05:45:31.365Z,12.05
2018-04-16T05:47:59.681Z,12.15
2018-04-16T05:50:27.238Z,12.22
2018-04-16T05:52:54.798Z,12.31
2018-04-16T05:55:23.100Z,12.38
2018-04-16T05:57:51.204Z,12.42
2018-04-16T06:00:18.877Z,12.44
2018-04-16T06:02:46.431Z,12.50
2018-04-16T06:05:14.009Z,12.53
2018-04-16T06:07:41.544Z,12.53
2018-04-16T06:10:09.890Z,12.52
2018-04-16T06:12:38.252Z,12.55
2018-04-16T06:15:06.425Z,12.51
2018-04-16T06:17:33.990Z,12.51
2018-04-16T06:20:01.646Z,12.53
2018-04-16T06:22:29.405Z,12.55
2018-04-16T06:24:56.992Z,12.59
2018-04-16T06:27:24.791Z,12.58
2018-04-16T06:29:52.441Z,12.55
2018-04-16T06:32:20.576Z,12.56
2018-04-16T06:34:48.105Z,12.59
2018-04-16T06:37:15.644Z,12.59
2018-04-16T06:39:43.870Z,12.52
2018-04-16T06:42:11.475Z,12.46
2018-04-16T06:44:39.700Z,12.38
2018-04-16T06:47:07.275Z,12.36
2018-04-16T06:49:35.267Z,12.36
2018-04-16T06:52:02.830Z,12.35
2018-04-16T06:54:30.783Z,12.39
2018-04-16T06:56:58.358Z,12.48
2018-04-16T06:59:26.847Z,12.54
2018-04-16T07:01:54.426Z,12.62
2018-04-16T07:04:21.981Z,12.63
2018-04-16T07:06:49.571Z,12.71
2018-04-16T07:09:17.721Z,12.77
2018-04-16T07:11:45.920Z,12.81
2018-04-16T07:14:14.011Z,12.86
2018-04-16T07:16:41.618Z,12.93
2018-04-16T07:19:10.125Z,12.97
2018-04-16T07:21:38.406Z,13.02
2018-04-16T07:24:05.988Z,13.01
2018-04-16T07:26:33.560Z,12.91
2018-04-16T07:29:01.145Z,12.81
2018-04-16T07:31:28.694Z,12.73
2018-04-16T07:33:56.748Z,12.68
2018-04-16T07:36:24.331Z,12.72
2018-04-16T07:38:52.792Z,12.73
2018-04-16T07:41:20.773Z,12.68
2018-04-16T07:43:48.973Z,12.67
2018-04-16T07:46:16.467Z,12.72
2018-04-16T07:48:44.558Z,12.69
2018-04-16T07:51:12.114Z,12.62
2018-04-16T07:53:40.368Z,12.65
2018-04-16T07:56:08.907Z,12.71
2018-04-16T07:58:38.013Z,12.75
2018-04-16T08:01:05.566Z,12.78
2018-04-16T08:03:33.153Z,12.78
2018-04-16T08:06:01.245Z,12.69
2018-04-16T08:08:28.795Z,12.66
2018-04-16T08:10:56.994Z,12.70
2018-04-16T08:13:25.139Z,12.73
2018-04-16T08:15:53.361Z,12.70
2018-04-16T08:18:20.921Z,12.72
2018-04-16T08:20:48.482Z,12.85
2018-04-16T08:23:16.106Z,13.00
2018-04-16T08:25:43.662Z,13.10
2018-04-16T08:28:11.240Z,13.26
2018-04-16T08:30:39.701Z,13.39
2018-04-16T08:33:08.760Z,13.54
2018-04-16T08:35:36.349Z,13.72
2018-04-16T08:38:05.074Z,13.92
2018-04-16T08:40:32.622Z,13.90
2018-04-16T08:43:00.178Z,13.72
2018-04-16T08:45:28.251Z,13.77
2018-04-16T08:47:56.217Z,13.73
2018-04-16T08:50:23.759Z,13.62
2018-04-16T08:52:51.310Z,13.61
2018-04-16T08:55:19.842Z,13.64
2018-04-16T08:57:47.679Z,13.71
2018-04-16T09:00:15.536Z,13.76
2018-04-16T09:02:43.623Z,13.87
2018-04-16T09:05:11.195Z,13.81
2018-04-16T09:07:39.055Z,13.83
2018-04-16T09:10:06.810Z,13.94
2018-04-16T09:12:35.136Z,14.01
2018-04-16T09:15:03.362Z,14.01
2018-04-16T09:17:30.920Z,14.00
2018-04-16T09:19:58.471Z,13.98
2018-04-16T09:22:26.031Z,14.04
2018-04-16T09:24:53.572Z,14.12
2018-04-16T09:27:21.722Z,14.17
2018-04-16T09:29:49.273Z,14.26
2018-04-16T09:32:17.297Z,14.26
2018-04-16T09:34:44.849Z,14.14
2018-04-16T09:37:12.379Z,14.12
2018-04-16T09:39:41.589Z,14.16
2018-04-16T09:42:09.199Z,14.07
2018-04-16T09:44:38.875Z,13.97
2018-04-16T09:47:08.034Z,13.87
2018-04-16T09:49:36.236Z,13.68
2018-04-16T09:52:03.786Z,13.61
2018-04-16T09:54:31.985Z,13.49
2018-04-16T09:56:59.529Z,13.43
2018-04-16T09:59:27.779Z,13.39
2018-04-16T10:01:56.000Z,13.29
2018-04-16T10:04:23.543Z,13.22
2018-04-16T10:06:51.074Z,13.19
2018-04-16T10:09:18.660Z,13.16
2018-04-16T10:11:46.954Z,13.13
2018-04-16T10:14:14.883Z,13.03
2018-04-16T10:16:42.479Z,13.07
2018-04-16T10:19:10.043Z,13.02
2018-04-16T10:21:38.346Z,13.07
2018-04-16T10:24:05.927Z,12.95
2018-04-16T10:26:33.475Z,12.92
2018-04-16T10:29:01.150Z,12.82
2018-04-16T10:31:28.708Z,12.82
2018-04-16T10:33:56.983Z,12.97
2018-04-16T10:36:24.523Z,13.07
2018-04-16T10:38:52.719Z,13.08
2018-04-16T10:41:20.275Z,13.01
2018-04-16T10:43:48.691Z,12.96
2018-04-16T10:46:16.251Z,12.99
2018-04-16T10:48:44.127Z,12.90
2018-04-16T10:51:11.670Z,12.98
2018-04-16T10:53:39.753Z,13.01
2018-04-16T10:56:08.074Z,13.13
2018-04-16T10:58:36.179Z,13.20
2018-04-16T11:01:03.732Z,13.32
2018-04-16T11:03:31.259Z,13.39
2018-04-16T11:05:58.870Z,13.51
2018-04-16T11:08:26.403Z,13.53
2018-04-16T11:10:54.774Z,13.48
2018-04-16T11:13:22.902Z,13.46
2018-04-16T11:15:51.379Z,13.53
2018-04-16T11:18:18.911Z,13.56
2018-04-16T11:20:46.438Z,13.61
2018-04-16T11:23:14.023Z,13.64
2018-04-16T11:25:41.604Z,13.77
2018-04-16T11:28:09.329Z,13.75
2018-04-16T11:30:37.165Z,13.82
2018-04-16T11:33:05.525Z,13.82
2018-04-16T11:35:33.060Z,13.76
2018-04-16T11:38:01.368Z,13.82
2018-04-16T11:40:28.886Z,13.81
2018-04-16T11:42:56.412Z,13.91
2018-04-16T11:45:24.647Z,13.97
2018-04-16T11:47:52.719Z,14.06
2018-04-16T11:50:20.290Z,14.19
2018-04-16T11:52:47.887Z,14.26
2018-04-16T11:55:15.989Z,14.20
2018-04-16T11:57:44.051Z,14.31
2018-04-16T12:00:12.255Z,14.42
2018-04-16T12:02:39.808Z,14.56
2018-04-16T12:05:07.592Z,14.64
2018-04-16T12:07:35.203Z,14.79
2018-04-16T12:10:02.743Z,15.03
2018-04-16T12:12:30.931Z,15.18
2018-04-16T12:14:59.356Z,15.31
2018-04-16T12:17:26.933Z,15.41
2018-04-16T12:19:54.491Z,15.46
2018-04-16T12:22:22.067Z,15.53
2018-04-16T12:24:49.711Z,15.58
2018-04-16T12:27:17.234Z,15.61
2018-04-16T12:29:44.811Z,15.67
2018-04-16T12:32:12.999Z,15.72
2018-04-16T12:34:40.540Z,15.78
2018-04-16T12:37:08.166Z,15.81
2018-04-16T12:39:36.394Z,15.74
2018-04-16T12:42:03.941Z,15.58
2018-04-16T12:44:32.338Z,15.50
2018-04-16T12:46:59.896Z,15.41
2018-04-16T12:49:28.526Z,15.45
2018-04-16T12:51:56.064Z,15.53
2018-04-16T12:54:24.515Z,15.43
2018-04-16T12:56:52.794Z,15.53
2018-04-16T12:59:21.473Z,15.57
2018-04-16T13:01:49.025Z,15.44
2018-04-16T13:04:16.548Z,15.45
2018-04-16T13:06:44.126Z,15.63
2018-04-16T13:09:11.648Z,15.82
2018-04-16T13:11:39.858Z,15.77
2018-04-16T13:14:09.191Z,15.90
2018-04-16T13:16:36.948Z,15.89
2018-04-16T13:19:04.617Z,15.90
2018-04-16T13:21:32.185Z,16.00
2018-04-16T13:23:59.722Z,16.14
2018-04-16T13:26:27.243Z,16.19
2018-04-16T13:28:55.116Z,16.31
2018-04-16T13:31:22.639Z,16.35
2018-04-16T13:33:50.871Z,16.45
2018-04-16T13:36:18.404Z,16.52
2018-04-16T13:38:46.734Z,16.60
2018-04-16T13:41:14.259Z,16.61
2018-04-16T13:43:43.469Z,16.43
2018-04-16T13:46:11.107Z,16.40
2018-04-16T13:48:39.256Z,16.35
2018-04-16T13:51:07.567Z,16.20
2018-04-16T13:53:35.107Z,16.20
2018-04-16T13:56:03.322Z,16.10
2018-04-16T13:58:31.418Z,16.09
2018-04-16T14:00:58.962Z,16.07
2018-04-16T14:03:26.497Z,16.00
2018-04-16T14:05:54.151Z,16.09
2018-04-16T14:08:21.672Z,16.09
2018-04-16T14:10:50.487Z,16.08
2018-04-16T14:13:18.607Z,16.09
2018-04-16T14:15:47.275Z,16.02
2018-04-16T14:18:14.796Z,15.94
2018-04-16T14:20:42.330Z,15.87
2018-04-16T14:23:09.895Z,15.84
2018-04-16T14:25:37.599Z,15.72
2018-04-16T14:28:05.174Z,15.50
2018-04-16T14:30:32.748Z,15.39
2018-04-16T14:33:00.731Z,15.30
2018-04-16T14:35:28.254Z,15.22
2018-04-16T14:37:55.785Z,15.21
2018-04-16T14:40:23.928Z,15.21
2018-04-16T14:42:51.470Z,15.22
2018-04-16T14:45:19.422Z,15.28
2018-04-16T14:47:47.870Z,15.25
2018-04-16T14:50:16.403Z,15.22
2018-04-16T14:52:43.938Z,15.11
2018-04-16T14:55:12.198Z,15.14
2018-04-16T14:57:39.769Z,15.22
2018-04-16T15:00:08.932Z,15.33
2018-04-16T15:02:36.471Z,15.44
2018-04-16T15:05:04.051Z,15.49
2018-04-16T15:07:31.626Z,15.55
2018-04-16T15:09:59.154Z,15.56
2018-04-16T15:12:28.218Z,15.60
2018-04-16T15:14:56.091Z,15.60
2018-04-16T15:17:23.610Z,15.56
2018-04-16T15:19:51.139Z,15.59
2018-04-16T15:22:18.694Z,15.69
2018-04-16T15:24:46.226Z,15.78
2018-04-16T15:27:13.757Z,15.92
2018-04-16T15:29:41.435Z,16.12
2018-04-16T15:32:10.428Z,16.29
2018-04-16T15:34:38.297Z,16.37
2018-04-16T15:37:05.826Z,16.36
2018-04-16T15:39:34.288Z,16.36
2018-04-16T15:42:01.822Z,16.49
2018-04-16T15:44:30.182Z,16.42
2018-04-16T15:46:58.294Z,16.31
2018-04-16T15:49:26.735Z,16.18
2018-04-16T15:51:54.265Z,16.06
2018-04-16T15:54:22.355Z,15.95
2018-04-16T15:56:49.904Z,15.83
2018-04-16T15:59:17.803Z,15.78
2018-04-16T16:01:45.342Z,15.67
2018-04-16T16:04:12.863Z,15.88
2018-04-16T16:06:40.453Z,16.38
2018-04-16T16:09:08.112Z,16.73
2018-04-16T16:11:36.297Z,16.54
2018-04-16T16:14:04.879Z,16.28
2018-04-16T16:16:32.795Z,16.08
2018-04-16T16:19:00.324Z,15.86
2018-04-16T16:21:27.861Z,15.64
2018-04-16T16:23:55.432Z,15.42
2018-04-16T16:26:23.689Z,15.26
2018-04-16T16:28:51.223Z,15.09
2018-04-16T16:31:18.751Z,14.99
2018-04-16T16:33:46.942Z,14.89
2018-04-16T16:36:14.587Z,14.81
2018-04-16T16:38:42.834Z,14.73
2018-04-16T16:41:10.377Z,14.65
2018-04-16T16:43:38.881Z,14.58
2018-04-16T16:46:06.461Z,14.42
2018-04-16T16:48:34.451Z,14.28
2018-04-16T16:51:01.970Z,14.18
2018-04-16T16:53:29.502Z,14.07
2018-04-16T16:55:57.901Z,13.99
2018-04-16T16:58:25.846Z,13.91
2018-04-16T17:00:53.384Z,13.85
2018-04-16T17:03:20.913Z,13.79
2018-04-16T17:05:48.478Z,13.74
2018-04-16T17:08:16.020Z,13.68
2018-04-16T17:10:44.311Z,13.66
2018-04-16T17:13:12.239Z,13.58
2018-04-16T17:15:40.285Z,13.52
2018-04-16T17:18:08.275Z,13.43
2018-04-16T17:20:35.844Z,13.36
2018-04-16T17:23:03.426Z,13.27
2018-04-16T17:25:30.954Z,13.18
2018-04-16T17:27:58.492Z,13.18
2018-04-16T17:30:26.049Z,13.19
2018-04-16T17:32:54.221Z,13.23
2018-04-16T17:35:21.781Z,13.23
2018-04-16T17:37:49.318Z,13.26
2018-04-16T17:40:17.420Z,13.31
2018-04-16T17:42:45.470Z,13.43
2018-04-16T17:45:13.547Z,13.54
2018-04-16T17:47:42.408Z,13.73
2018-04-16T17:50:09.931Z,13.83
2018-04-16T17:52:38.599Z,13.89
2018-04-16T17:55:06.833Z,13.82
2018-04-16T17:57:34.394Z,13.79
2018-04-16T18:00:02.646Z,13.66
2018-04-16T18:02:30.251Z,13.56
2018-04-16T18:04:57.786Z,13.43
2018-04-16T18:07:25.346Z,13.28
2018-04-16T18:09:52.888Z,13.17
2018-04-16T18:12:20.895Z,13.10
2018-04-16T18:14:49.111Z,13.00
2018-04-16T18:17:16.694Z,12.92
2018-04-16T18:19:44.222Z,12.83
2018-04-16T18:22:11.779Z,12.73
2018-04-16T18:24:39.378Z,12.65
2018-04-16T18:27:07.624Z,12.59
2018-04-16T18:29:35.264Z,12.52
2018-04-16T18:32:04.080Z,12.47
2018-04-16T18:34:31.610Z,12.42
2018-04-16T18:36:59.151Z,12.37
2018-04-16T18:39:27.410Z,12.29
2018-04-16T18:41:55.696Z,12.24
2018-04-16T18:44:23.992Z,12.18
2018-04-16T18:46:52.232Z,12.10
2018-04-16T18:49:20.175Z,12.00
2018-04-16T18:51:47.956Z,11.91
2018-04-16T18:54:16.633Z,11.82
2018-04-16T18:56:44.198Z,11.74
2018-04-16T18:59:12.110Z,11.70
2018-04-16T19:01:39.671Z,11.65
2018-04-16T19:04:07.387Z,11.60
2018-04-16T19:06:34.992Z,11.56
2018-04-16T19:09:02.585Z,11.51
2018-04-16T19:11:30.763Z,11.43
2018-04-16T19:13:58.975Z,11.37
2018-04-16T19:16:26.521Z,11.29
2018-04-16T19:18:54.047Z,11.24
2018-04-16T19:21:27.006Z,11.22
2018-04-16T19:23:54.560Z,11.18
2018-04-16T19:26:22.092Z,11.15
2018-04-16T19:28:49.735Z,11.08
2018-04-16T19:31:17.268Z,11.05
2018-04-16T19:33:51.256Z,11.04
2018-04-16T19:36:19.799Z,11.01
2018-04-16T19:38:48.065Z,10.96
2018-04-16T19:41:16.222Z,10.94
2018-04-16T19:43:44.507Z,10.94
2018-04-16T19:46:12.030Z,10.93
2018-04-16T19:48:45.720Z,10.95
2018-04-16T19:51:13.250Z,10.93
2018-04-16T19:53:41.534Z,10.95
2018-04-16T19:56:29.331Z,10.99
2018-04-16T19:58:57.535Z,11.02
2018-04-16T20:01:25.090Z,11.06
2018-04-16T20:03:58.303Z,11.07
2018-04-16T20:06:25.833Z,11.07
2018-04-16T20:08:53.363Z,11.07
2018-04-16T20:11:21.658Z,11.06
2018-04-16T20:13:49.833Z,11.07
2018-04-16T20:16:17.361Z,11.07
2018-04-16T20:18:44.924Z,11.04
2018-04-16T20:21:12.478Z,11.00
2018-04-16T20:23:40.013Z,10.93
2018-04-16T20:26:07.951Z,10.88
2018-04-16T20:28:35.518Z,10.79
2018-04-16T20:31:03.054Z,10.71
2018-04-16T20:33:31.421Z,10.64
2018-04-16T20:35:59.471Z,10.57
2018-04-16T20:38:27.804Z,10.51
2018-04-16T20:40:55.345Z,10.46
2018-04-16T20:43:23.216Z,10.43
2018-04-16T20:45:51.152Z,10.38
2018-04-16T20:48:19.039Z,10.32
2018-04-16T20:50:46.620Z,10.24
2018-04-16T20:53:14.135Z,10.18
2018-04-16T20:55:42.058Z,10.14
2018-04-16T20:58:10.433Z,10.12
2018-04-16T21:00:38.980Z,10.06
2018-04-16T21:03:06.580Z,10.01
2018-04-16T21:05:34.227Z,9.99
2018-04-16T21:08:01.770Z,9.95
2018-04-16T21:10:29.405Z,9.91
2018-04-16T21:12:57.700Z,9.88
2018-04-16T21:15:25.811Z,9.85
2018-04-16T21:17:53.394Z,9.84
2018-04-16T21:20:20.914Z,9.83
2018-04-16T21:22:48.564Z,9.82
2018-04-16T21:25:16.105Z,9.80
2018-04-16T21:27:43.869Z,9.78
2018-04-16T21:30:11.411Z,9.76
2018-04-16T21:32:40.243Z,9.75
2018-04-16T21:35:07.930Z,9.72
2018-04-16T21:37:35.463Z,9.69
2018-04-16T21:40:03.709Z,9.65
2018-04-16T21:42:31.875Z,9.60
2018-04-16T21:44:59.918Z,9.56
2018-04-16T21:47:28.458Z,9.54
2018-04-16T21:49:56.471Z,9.50
2018-04-16T21:52:24.008Z,9.48
2018-04-16T21:54:52.175Z,9.44
2018-04-16T21:57:19.713Z,9.41
2018-04-16T21:59:47.995Z,9.37
2018-04-16T22:02:15.541Z,9.33
2018-04-16T22:04:43.084Z,9.29
2018-04-16T22:07:10.645Z,9.26
2018-04-16T22:09:39.270Z,9.22
2018-04-16T22:12:07.736Z,9.19
2018-04-16T22:14:35.795Z,9.16
2018-04-16T22:17:03.335Z,9.10
2018-04-16T22:19:30.872Z,9.04
2018-04-16T22:21:58.439Z,8.97
2018-04-16T22:24:25.971Z,8.92
2018-04-16T22:26:53.518Z,8.87
2018-04-16T22:29:21.926Z,8.83
2018-04-16T22:31:50.968Z,8.81
2018-04-16T22:34:18.497Z,8.76
2018-04-16T22:36:46.034Z,8.72
2018-04-16T22:39:14.364Z,8.68
2018-04-16T22:41:41.899Z,8.62
2018-04-16T22:44:10.418Z,8.58
2018-04-16T22:46:38.204Z,8.54
2018-04-16T22:49:06.501Z,8.49
2018-04-16T22:51:34.087Z,8.47
2018-04-16T22:54:02.202Z,8.45
2018-04-16T22:56:29.754Z,8.40
2018-04-16T22:58:57.724Z,8.34
2018-04-16T23:01:25.285Z,8.28
2018-04-16T23:03:52.949Z,8.25
2018-04-16T23:06:20.517Z,8.22
2018-04-16T23:08:48.047Z,8.21
2018-04-16T23:11:16.211Z,8.18
2018-04-16T23:13:44.516Z,8.16
2018-04-16T23:16:12.051Z,8.16
2018-04-16T23:18:39.642Z,8.16
2018-04-16T23:21:07.487Z,8.15
2018-04-16T23:23:35.031Z,8.14
2018-04-16T23:26:03.495Z,8.12
2018-04-16T23:28:31.794Z,8.10
2018-04-16T23:30:59.318Z,8.10
2018-04-16T23:33:27.834Z,8.08
2018-04-16T23:35:55.389Z,8.07
2018-04-16T23:38:24.421Z,8.07
2018-04-16T23:40:52.042Z,8.07
2018-04-16T23:43:19.762Z,8.03
2018-04-16T23:45:47.999Z,8.01
2018-04-16T23:48:16.051Z,7.97
2018-04-16T23:50:43.577Z,7.94
2018-04-16T23:53:11.250Z,7.91
2018-04-16T23:55:39.397Z,7.87
2018-04-16T23:58:08.054Z,7.87
